Istanbul Airport (IST/LTFM)



No chart available
Flight Aircraft Arriving
CPX955
EDDK - Cologne Bonn Airport
Germany Cologne, Germany
Flight Aircraft Departing
CPX954
EDDK - Cologne Bonn Airport
Germany Cologne, Germany


Airport Information
Location: Istanbul,
Coordinates: 41.2753 / 28.7519
Field Elevation: 325ft
Longest Runway: 13,472ft
ILS Approaches: NO
Landing Fees: $7,464 per flight
Jet A Price: $0.65/lbs

Current Weather
METAR: LTFM 042050Z 06016KT 9999 FEW025 23/18 Q1015 NOSIG RMK RWY17L 05014KT RWY34L 04013KT RWY16R 05013KT RWY36 05014KT RWY18 06012KT
TAF: TAF LTFM 041640Z 0418/0524 05018G28KT 9999 FEW025 BECMG 0418/0421 05012KT BECMG 0504/0507 05016G26KT BECMG 0516/0519 04012KT

Recent Arrivals
Date Flight Type Depart
03/24/2022 CPX954 A30F Cologne Bonn Airport (EDDK)
01/11/2022 CPX954 A30F Cologne Bonn Airport (EDDK)
12/24/2021 CPX954 A30F Cologne Bonn Airport (EDDK)
11/02/2021 CPX930 A30F Cologne Bonn Airport (EDDK)
Recent Departures
Date Flight Type Arrive
03/28/2022 CPX955 A30F Cologne Bonn Airport (EDDK)
01/11/2022 CPX955 A30F Cologne Bonn Airport (EDDK)
12/26/2021 CPX955 A30F Cologne Bonn Airport (EDDK)
11/03/2021 CPX931 A30F Cologne Bonn Airport (EDDK)